Time;durP1;ratioP1;P1;durP2;ratioP2;P2;SDS_P1;SDS_P2;PMS_P1;PMS_P2;Temp;Humidity;BMP_temperature;BMP_pressure;BME280_temperature;BME280_humidity;BME280_pressure;Samples;Min_cycle;Max_cycle;Signal;HPM_P1;HPM_P2
2023/12/09 00:00:39;;;;;;;16.90;13.20;;;;;;;-1.87;84.87;100379.52;105942;1257;72649;-77
2023/12/09 00:03:07;;;;;;;17.10;11.50;;;;;;;-1.91;84.76;100374.30;105954;1254;59724;-75
2023/12/09 00:05:34;;;;;;;16.40;12.00;;;;;;;-1.84;84.68;100373.95;105953;1252;60182;-76
2023/12/09 00:08:01;;;;;;;18.80;11.80;;;;;;;-1.75;84.37;100374.96;105875;1254;71790;-76
2023/12/09 00:10:28;;;;;;;20.90;12.50;;;;;;;-1.79;84.35;100371.99;105892;1254;70131;-76
2023/12/09 00:12:54;;;;;;;17.20;12.30;;;;;;;-1.83;84.66;100372.35;105835;1254;72759;-77
2023/12/09 00:15:21;;;;;;;19.50;13.10;;;;;;;-1.85;84.96;100374.21;105896;1256;59644;-76
2023/12/09 00:17:48;;;;;;;17.10;12.30;;;;;;;-1.87;85.10;100377.08;105923;1253;60286;-76
2023/12/09 00:20:15;;;;;;;17.50;11.90;;;;;;;-1.89;84.95;100376.09;105928;1257;73113;-76
2023/12/09 00:22:42;;;;;;;18.20;12.60;;;;;;;-1.80;84.67;100377.60;105950;1254;70076;-77
2023/12/09 00:25:09;;;;;;;16.50;12.00;;;;;;;-1.71;84.01;100378.36;106074;1253;72946;-80
2023/12/09 00:27:35;;;;;;;19.30;12.40;;;;;;;-1.73;84.00;100376.92;106185;1253;59569;-78
2023/12/09 00:30:03;;;;;;;29.70;13.60;;;;;;;-1.75;84.44;100381.71;106221;1253;62549;-78
2023/12/09 00:32:30;;;;;;;19.40;13.20;;;;;;;-1.78;84.24;100387.77;106063;1259;72863;-79
2023/12/09 00:34:58;;;;;;;17.90;14.20;;;;;;;-1.83;84.30;100389.16;109484;1253;67881;-77
2023/12/09 00:37:24;;;;;;;18.30;12.20;;;;;;;-1.84;84.50;100387.16;109339;1253;71163;-79
2023/12/09 00:39:51;;;;;;;19.40;13.40;;;;;;;-1.73;84.29;100389.61;107048;1253;61394;-76
2023/12/09 00:42:18;;;;;;;22.90;14.90;;;;;;;-1.64;83.67;100396.27;106820;1256;60147;-79
2023/12/09 00:44:45;;;;;;;20.30;14.60;;;;;;;-1.64;84.10;100399.55;106458;1254;72987;-79
2023/12/09 00:47:11;;;;;;;22.50;15.50;;;;;;;-1.65;84.22;100401.73;106254;1255;70277;-80
2023/12/09 00:49:38;;;;;;;21.50;15.00;;;;;;;-1.72;84.07;100398.23;105968;1254;70219;-78
2023/12/09 00:52:05;;;;;;;22.50;14.90;;;;;;;-1.77;84.25;100397.08;106095;1257;59630;-76
2023/12/09 00:54:32;;;;;;;21.40;15.20;;;;;;;-1.81;84.28;100394.80;106123;1254;60003;-77
2023/12/09 00:56:58;;;;;;;22.80;13.90;;;;;;;-1.85;84.17;100394.14;106224;1257;72729;-78
2023/12/09 00:59:25;;;;;;;26.10;13.80;;;;;;;-1.79;84.10;100388.34;105995;1254;70144;-77
2023/12/09 01:01:52;;;;;;;21.80;14.00;;;;;;;-1.70;83.86;100381.27;106124;1253;72710;-78
2023/12/09 01:04:18;;;;;;;26.90;18.60;;;;;;;-1.69;84.08;100380.38;106076;1253;59634;-78
2023/12/09 01:06:45;;;;;;;31.30;19.30;;;;;;;-1.74;84.34;100376.96;106038;1254;60174;-79
2023/12/09 01:09:13;;;;;;;32.80;21.40;;;;;;;-1.78;84.40;100376.96;106217;1254;72679;-78
2023/12/09 01:11:40;;;;;;;28.90;19.60;;;;;;;-1.82;84.36;100377.16;106283;1254;70265;-76
2023/12/09 01:14:07;;;;;;;24.50;16.70;;;;;;;-1.87;84.34;100378.98;105920;1254;72678;-78
2023/12/09 01:16:33;;;;;;;23.00;14.50;;;;;;;-1.90;84.42;100380.34;105964;1253;61045;-76
2023/12/09 01:19:00;;;;;;;23.20;14.70;;;;;;;-1.82;84.28;100380.64;106140;1254;59134;-78
2023/12/09 01:21:27;;;;;;;23.00;14.50;;;;;;;-1.73;84.16;100384.02;105950;1256;73078;-77
2023/12/09 01:23:53;;;;;;;23.40;15.30;;;;;;;-1.74;83.95;100384.43;106927;1253;70096;-73
2023/12/09 01:26:20;;;;;;;22.20;14.60;;;;;;;-1.81;83.90;100387.70;107314;1253;71547;-75
2023/12/09 01:28:47;;;;;;;23.60;15.00;;;;;;;-1.86;84.06;100387.95;108967;1256;60704;-77
2023/12/09 01:31:14;;;;;;;19.80;14.40;;;;;;;-1.87;84.33;100387.64;106696;1254;60682;-78
2023/12/09 01:33:41;;;;;;;21.20;14.20;;;;;;;-1.91;84.08;100388.52;106366;1253;73033;-77
2023/12/09 01:36:08;;;;;;;19.30;14.60;;;;;;;-1.84;84.12;100393.24;106397;1256;69354;-77
2023/12/09 01:38:35;;;;;;;19.40;13.30;;;;;;;-1.73;84.01;100391.67;106132;1254;71456;-77
2023/12/09 01:41:02;;;;;;;21.80;15.30;;;;;;;-1.75;84.01;100390.38;105957;1252;59717;-77
2023/12/09 01:43:28;;;;;;;21.60;15.10;;;;;;;-1.80;84.27;100387.12;106112;1254;59791;-77
2023/12/09 01:45:58;;;;;;;23.60;16.00;;;;;;;-1.82;84.52;100392.77;106390;1254;59609;-77
2023/12/09 01:48:24;;;;;;;22.60;14.80;;;;;;;-1.85;84.47;100390.85;106083;1254;68699;-80
2023/12/09 01:50:51;;;;;;;23.40;13.80;;;;;;;-1.91;84.19;100389.77;105832;1253;70392;-76
2023/12/09 01:53:18;;;;;;;20.00;13.30;;;;;;;-1.88;83.91;100392.57;105927;1256;60126;-79
2023/12/09 01:55:45;;;;;;;19.30;13.70;;;;;;;-1.81;83.59;100386.16;105900;1253;59746;-79
2023/12/09 01:58:12;;;;;;;19.80;13.20;;;;;;;-1.84;84.09;100384.69;105961;1253;70579;-77
2023/12/09 02:00:39;;;;;;;21.10;13.90;;;;;;;-1.84;84.50;100381.09;106021;1254;70234;-76
2023/12/09 02:03:06;;;;;;;20.20;13.80;;;;;;;-1.85;84.82;100382.86;106009;1253;72637;-79
2023/12/09 02:05:33;;;;;;;25.50;16.40;;;;;;;-1.85;84.76;100379.93;106068;1253;59770;-79
2023/12/09 02:07:59;;;;;;;24.70;16.70;;;;;;;-1.89;84.53;100383.91;106008;1253;60220;-77
2023/12/09 02:10:27;;;;;;;20.50;14.20;;;;;;;-1.84;84.12;100380.55;105985;1254;70930;-76
2023/12/09 02:12:56;;;;;;;21.90;14.90;;;;;;;-1.78;83.63;100383.75;105864;1257;69047;-79
2023/12/09 02:15:46;;;;;;;22.10;14.40;;;;;;;-1.80;83.77;100381.58;106179;1254;72346;-77
2023/12/09 02:18:13;;;;;;;21.60;13.30;;;;;;;-1.87;83.87;100385.04;106508;1256;59574;-77
2023/12/09 02:20:40;;;;;;;19.40;13.50;;;;;;;-1.92;84.10;100380.94;107586;1254;59585;-81
2023/12/09 02:23:11;;;;;;;23.40;15.60;;;;;;;-1.95;84.22;100381.80;109449;1252;71618;-79
2023/12/09 02:25:38;;;;;;;26.10;16.70;;;;;;;-1.99;84.33;100383.33;108086;1256;68942;-78
2023/12/09 02:28:26;;;;;;;26.20;16.10;;;;;;;-1.98;84.50;100381.56;106638;1256;72680;-80
2023/12/09 02:31:15;;;;;;;28.40;17.20;;;;;;;-1.85;84.08;100378.52;106238;1254;60466;-80
2023/12/09 02:33:43;;;;;;;26.50;17.00;;;;;;;-1.78;83.84;100378.72;105970;1253;60521;-79
2023/12/09 02:36:10;;;;;;;28.70;17.10;;;;;;;-1.78;84.27;100378.90;105978;1257;73785;-79
2023/12/09 02:38:37;;;;;;;27.60;17.60;;;;;;;-1.79;84.69;100375.64;105939;1256;68813;-81
2023/12/09 02:41:05;;;;;;;28.50;16.60;;;;;;;-1.80;84.88;100378.45;105900;1254;72632;-80
2023/12/09 02:43:32;;;;;;;28.90;18.00;;;;;;;-1.80;84.88;100377.23;106020;1254;60569;-81
2023/12/09 02:45:59;;;;;;;32.30;18.80;;;;;;;-1.81;84.76;100376.05;106271;1254;60408;-80
2023/12/09 02:48:25;;;;;;;26.80;16.40;;;;;;;-1.75;84.10;100373.73;106128;1253;73835;-76
2023/12/09 02:50:52;;;;;;;28.50;17.80;;;;;;;-1.69;83.96;100376.88;106410;1257;69171;-79
2023/12/09 02:53:19;;;;;;;29.30;18.80;;;;;;;-1.69;84.13;100376.91;106463;1254;72530;-80
2023/12/09 02:55:46;;;;;;;32.30;20.00;;;;;;;-1.71;84.42;100374.02;106241;1254;60426;-79
2023/12/09 02:58:13;;;;;;;35.90;21.40;;;;;;;-1.72;84.47;100376.50;106386;1253;60536;-79
2023/12/09 03:00:39;;;;;;;30.70;19.20;;;;;;;-1.74;84.56;100376.44;108968;1254;72451;-78
2023/12/09 03:03:06;;;;;;;33.20;19.00;;;;;;;-1.75;84.43;100375.27;106644;1256;68829;-80
2023/12/09 03:05:33;;;;;;;27.00;16.20;;;;;;;-1.68;84.11;100377.70;106441;1254;71322;-78
2023/12/09 03:08:00;;;;;;;25.90;16.20;;;;;;;-1.62;83.61;100384.88;106508;1253;60430;-76
2023/12/09 03:10:26;;;;;;;28.10;15.90;;;;;;;-1.66;83.56;100388.55;107300;1256;60487;-78
2023/12/09 03:12:53;;;;;;;24.50;16.30;;;;;;;-1.74;83.64;100390.34;107027;1256;73622;-80
2023/12/09 03:15:20;;;;;;;27.20;16.20;;;;;;;-1.78;84.02;100391.25;108577;1252;69991;-80
2023/12/09 03:17:46;;;;;;;27.30;16.40;;;;;;;-1.82;84.13;100391.23;109418;1253;73679;-79
2023/12/09 03:20:13;;;;;;;25.80;16.60;;;;;;;-1.85;84.09;100395.37;107803;1252;60534;-78
2023/12/09 03:22:41;;;;;;;23.20;14.50;;;;;;;-1.78;83.81;100396.59;106880;1254;60539;-77
2023/12/09 03:25:08;;;;;;;24.10;16.00;;;;;;;-1.69;83.68;100397.40;106218;1256;73894;-78
2023/12/09 03:27:35;;;;;;;27.10;15.90;;;;;;;-1.70;83.94;100402.11;106235;1253;70022;-80
2023/12/09 03:30:01;;;;;;;26.00;16.10;;;;;;;-1.73;84.24;100399.66;106317;1254;71153;-82
2023/12/09 03:32:28;;;;;;;25.20;15.70;;;;;;;-1.78;84.09;100403.02;106360;1254;60517;-79
2023/12/09 03:34:56;;;;;;;23.70;14.90;;;;;;;-1.84;84.27;100404.50;106977;1254;60536;-81
2023/12/09 03:37:23;;;;;;;26.30;15.40;;;;;;;-1.93;83.86;100401.98;106418;1257;73635;-82
2023/12/09 03:39:49;;;;;;;24.00;15.20;;;;;;;-1.91;83.82;100405.04;106289;1254;69135;-81
2023/12/09 03:42:16;;;;;;;22.60;14.40;;;;;;;-1.86;83.67;100406.34;106439;1256;72521;-82
2023/12/09 03:44:43;;;;;;;25.60;16.40;;;;;;;-1.91;83.91;100401.54;106674;1254;60526;-82
2023/12/09 03:47:09;;;;;;;29.90;16.10;;;;;;;-1.93;84.47;100399.94;106556;1256;60537;-84
2023/12/09 03:49:48;;;;;;;26.00;17.00;;;;;;;-1.94;84.94;100398.95;106383;1256;73558;-84
2023/12/09 03:52:15;;;;;;;25.80;16.90;;;;;;;-1.94;85.40;100400.66;106118;1254;72441;-79
2023/12/09 03:54:45;;;;;;;29.60;16.00;;;;;;;-1.94;85.20;100396.99;106020;1253;72670;-77
2023/12/09 03:57:13;;;;;;;25.80;14.20;;;;;;;-1.84;85.00;100399.66;106181;1254;60535;-78
2023/12/09 03:59:40;;;;;;;24.90;16.10;;;;;;;-1.75;84.53;100397.54;106070;1252;60488;-78
2023/12/09 04:02:07;;;;;;;34.00;18.90;;;;;;;-1.82;84.42;100399.20;106008;1254;73808;-77
2023/12/09 04:04:38;;;;;;;30.70;18.20;;;;;;;-1.90;84.71;100399.94;106694;1256;70141;-78
2023/12/09 04:07:05;;;;;;;30.60;19.50;;;;;;;-1.94;85.12;100399.45;106428;1254;72944;-79
2023/12/09 04:09:32;;;;;;;35.60;19.40;;;;;;;-1.96;85.11;100395.39;108794;1252;60437;-78
2023/12/09 04:12:00;;;;;;;32.70;19.40;;;;;;;-1.97;85.32;100387.94;109405;1254;58846;-78
2023/12/09 04:14:26;;;;;;;33.50;18.60;;;;;;;-1.86;84.97;100388.27;108576;1254;72244;-76
2023/12/09 04:16:53;;;;;;;31.00;18.40;;;;;;;-1.79;84.47;100386.03;106761;1254;68861;-76
2023/12/09 04:19:20;;;;;;;32.90;18.90;;;;;;;-1.80;84.59;100385.02;106307;1254;72757;-77
2023/12/09 04:21:47;;;;;;;33.00;19.40;;;;;;;-1.81;85.08;100389.46;106088;1254;60950;-79
2023/12/09 04:24:14;;;;;;;31.60;19.60;;;;;;;-1.84;85.29;100388.72;106185;1254;60337;-76
2023/12/09 04:26:40;;;;;;;34.50;20.30;;;;;;;-1.86;85.52;100390.36;106202;1254;72509;-79
2023/12/09 04:29:07;;;;;;;33.90;19.10;;;;;;;-1.87;85.49;100388.16;106999;1257;68986;-77
2023/12/09 04:31:34;;;;;;;32.30;19.80;;;;;;;-1.82;85.04;100384.98;108034;1253;72487;-77
2023/12/09 04:34:01;;;;;;;28.80;19.00;;;;;;;-1.74;84.89;100386.88;107833;1252;60309;-78
2023/12/09 04:36:28;;;;;;;30.20;18.60;;;;;;;-1.77;84.99;100388.73;108232;1252;59424;-76
2023/12/09 04:38:55;;;;;;;31.50;18.60;;;;;;;-1.80;85.38;100387.84;108455;1253;72199;-77
2023/12/09 04:41:22;;;;;;;34.40;19.50;;;;;;;-1.83;85.41;100388.48;106904;1257;67883;-80
2023/12/09 04:43:50;;;;;;;34.30;20.10;;;;;;;-1.86;85.41;100388.31;106415;1257;71200;-80
2023/12/09 04:46:17;;;;;;;34.50;20.10;;;;;;;-1.90;85.56;100388.85;106379;1252;60546;-81
2023/12/09 04:48:44;;;;;;;32.50;18.60;;;;;;;-1.82;85.30;100388.96;106304;1255;60830;-80
2023/12/09 04:51:11;;;;;;;31.60;18.50;;;;;;;-1.74;85.13;100391.38;106422;1256;73861;-78
2023/12/09 04:53:38;;;;;;;30.30;19.40;;;;;;;-1.76;85.20;100390.80;106348;1254;68958;-78
2023/12/09 04:56:08;;;;;;;30.20;17.80;;;;;;;-1.80;85.47;100395.30;106399;1254;72899;-79
2023/12/09 04:58:35;;;;;;;32.70;20.30;;;;;;;-1.83;85.46;100392.31;106318;1254;60497;-79
2023/12/09 05:01:01;;;;;;;31.50;19.40;;;;;;;-1.87;85.49;100394.75;106525;1254;60475;-81
2023/12/09 05:03:29;;;;;;;32.80;19.50;;;;;;;-1.97;85.09;100391.77;108796;1253;73859;-78
2023/12/09 05:05:56;;;;;;;34.80;20.00;;;;;;;-1.92;85.01;100398.84;109457;1252;68872;-78
2023/12/09 05:08:23;;;;;;;30.40;17.90;;;;;;;-1.81;84.82;100402.13;107241;1254;70448;-79
2023/12/09 05:10:50;;;;;;;30.50;18.20;;;;;;;-1.82;84.95;100408.24;106806;1252;60404;-77
2023/12/09 05:13:16;;;;;;;31.30;16.70;;;;;;;-1.87;85.33;100414.90;106543;1256;60294;-80
2023/12/09 05:15:43;;;;;;;28.00;17.90;;;;;;;-1.90;85.64;100420.27;106275;1254;72411;-76
2023/12/09 05:18:10;;;;;;;32.70;18.50;;;;;;;-1.92;86.20;100424.01;106157;1253;70514;-78
2023/12/09 05:20:38;;;;;;;30.00;17.30;;;;;;;-1.92;86.06;100424.69;106513;1254;71439;-76
2023/12/09 05:23:05;;;;;;;29.60;16.90;;;;;;;-1.83;85.60;100429.30;106099;1253;60440;-77
2023/12/09 05:25:35;;;;;;;30.60;18.00;;;;;;;-1.72;85.38;100429.33;106073;1257;61056;-77
2023/12/09 05:28:02;;;;;;;28.90;18.40;;;;;;;-1.71;85.57;100425.64;106334;1256;73729;-78
2023/12/09 05:30:29;;;;;;;29.80;18.30;;;;;;;-1.74;86.03;100422.63;106080;1254;70357;-75
2023/12/09 05:32:57;;;;;;;30.80;17.60;;;;;;;-1.76;86.09;100421.68;106113;1254;72714;-75
2023/12/09 05:35:24;;;;;;;30.80;17.30;;;;;;;-1.79;86.16;100424.77;106332;1254;60537;-77
2023/12/09 05:37:51;;;;;;;33.70;17.40;;;;;;;-1.81;86.06;100426.08;106679;1253;60335;-81
2023/12/09 05:40:18;;;;;;;28.50;16.50;;;;;;;-1.72;85.66;100428.44;106762;1254;72388;-79
2023/12/09 05:42:44;;;;;;;31.10;16.30;;;;;;;-1.62;85.25;100425.90;107020;1253;70615;-77
2023/12/09 05:45:11;;;;;;;26.40;16.00;;;;;;;-1.64;85.40;100425.12;107098;1253;72731;-79
2023/12/09 05:47:38;;;;;;;30.60;17.30;;;;;;;-1.67;85.68;100422.12;107082;1254;60410;-78
2023/12/09 05:50:06;;;;;;;29.30;17.20;;;;;;;-1.69;85.79;100427.10;107360;1254;60415;-77
2023/12/09 05:52:33;;;;;;;34.30;19.30;;;;;;;-1.76;85.50;100426.38;107221;1257;72565;-82
2023/12/09 05:55:01;;;;;;;30.30;17.50;;;;;;;-1.80;85.61;100429.48;106090;1254;70073;-80
2023/12/09 05:57:28;;;;;;;30.40;17.40;;;;;;;-1.72;85.08;100428.98;108891;1252;72650;-79
2023/12/09 05:59:55;;;;;;;32.60;17.50;;;;;;;-1.69;84.48;100431.58;109381;1253;60257;-81
2023/12/09 06:02:22;;;;;;;29.20;17.50;;;;;;;-1.72;84.96;100429.83;108043;1255;59384;-75
2023/12/09 06:04:49;;;;;;;32.30;18.30;;;;;;;-1.73;85.46;100431.61;107630;1254;73852;-76
2023/12/09 06:07:16;;;;;;;30.90;18.40;;;;;;;-1.73;85.88;100429.03;106886;1254;68864;-80
2023/12/09 06:09:43;;;;;;;28.80;17.40;;;;;;;-1.72;85.98;100429.51;107621;1257;74443;-77
2023/12/09 06:12:10;;;;;;;32.60;17.50;;;;;;;-1.74;85.68;100426.98;106576;1253;60565;-77
2023/12/09 06:14:37;;;;;;;29.00;17.10;;;;;;;-1.69;85.37;100430.55;106333;1254;60523;-75
2023/12/09 06:17:04;;;;;;;26.60;15.90;;;;;;;-1.59;85.27;100428.17;106172;1254;72790;-77
2023/12/09 06:19:31;;;;;;;30.70;17.50;;;;;;;-1.63;85.04;100420.89;106123;1254;70588;-80
2023/12/09 06:21:58;;;;;;;28.70;17.30;;;;;;;-1.71;85.25;100418.30;105994;1254;72639;-76
2023/12/09 06:24:25;;;;;;;33.20;18.80;;;;;;;-1.74;85.77;100417.62;106074;1254;60519;-76
2023/12/09 06:26:52;;;;;;;28.70;19.00;;;;;;;-1.75;86.20;100421.63;106105;1254;60494;-77
2023/12/09 06:29:20;;;;;;;32.80;18.40;;;;;;;-1.75;86.37;100420.60;106343;1256;73547;-78
2023/12/09 06:31:47;;;;;;;31.20;18.70;;;;;;;-1.67;86.12;100419.36;106269;1256;70868;-79
2023/12/09 06:34:13;;;;;;;29.70;18.70;;;;;;;-1.59;85.84;100417.77;106637;1253;72658;-78
2023/12/09 06:36:40;;;;;;;37.30;18.70;;;;;;;-1.60;86.00;100415.36;107604;1253;60394;-79
2023/12/09 06:39:07;;;;;;;33.60;20.10;;;;;;;-1.62;86.22;100415.46;108152;1253;60194;-82
2023/12/09 06:41:38;;;;;;;31.80;20.00;;;;;;;-1.63;86.31;100412.55;108590;1253;73877;-84
2023/12/09 06:44:07;;;;;;;35.60;19.60;;;;;;;-1.63;86.20;100419.16;106775;1259;69036;-78
2023/12/09 06:46:40;;;;;;;29.90;18.60;;;;;;;-1.52;85.74;100422.14;106395;1253;72484;-77
2023/12/09 06:49:07;;;;;;;32.10;19.40;;;;;;;-1.45;85.10;100422.47;106375;1254;60512;-78
2023/12/09 06:51:35;;;;;;;32.20;18.90;;;;;;;-1.51;84.81;100417.57;108457;1252;60665;-80
2023/12/09 06:54:03;;;;;;;32.80;20.90;;;;;;;-1.56;85.21;100428.38;109478;1253;72437;-81
2023/12/09 06:56:29;;;;;;;34.50;20.50;;;;;;;-1.54;85.79;100423.92;108395;1252;70104;-80
2023/12/09 06:58:56;;;;;;;35.50;21.30;;;;;;;-1.51;85.86;100424.98;108148;1256;71051;-78
2023/12/09 07:01:24;;;;;;;36.00;20.50;;;;;;;-1.45;85.88;100426.98;107637;1254;60597;-82
2023/12/09 07:03:51;;;;;;;31.00;19.50;;;;;;;-1.31;85.51;100428.73;107708;1255;60341;-81
2023/12/09 07:06:25;;;;;;;32.00;19.90;;;;;;;-1.21;84.78;100432.73;107909;1254;72754;-81
2023/12/09 07:08:53;;;;;;;36.00;20.90;;;;;;;-1.20;84.85;100431.29;107306;1254;70778;-78
2023/12/09 07:11:21;;;;;;;33.10;21.30;;;;;;;-1.21;84.94;100431.70;107150;1254;71247;-81
2023/12/09 07:13:48;;;;;;;34.10;20.60;;;;;;;-1.22;85.19;100430.90;107404;1254;60456;-84
2023/12/09 07:16:15;;;;;;;32.10;19.50;;;;;;;-1.24;85.37;100431.48;107314;1252;60431;-80
2023/12/09 07:18:43;;;;;;;32.60;19.40;;;;;;;-1.24;85.33;100437.06;107240;1253;71486;-81
2023/12/09 07:21:15;;;;;;;31.70;20.50;;;;;;;-1.15;84.84;100432.45;109092;1252;70065;-82
2023/12/09 07:23:45;;;;;;;39.00;25.40;;;;;;;-1.04;84.27;100430.19;109284;1253;71527;-83
2023/12/09 07:26:13;;;;;;;38.70;28.70;;;;;;;-1.07;84.36;100435.39;109331;1254;58020;-81
2023/12/09 07:28:40;;;;;;;35.00;22.60;;;;;;;-1.08;84.54;100438.38;109381;1253;58889;-82
2023/12/09 07:31:06;;;;;;;38.10;25.50;;;;;;;-1.14;83.99;100440.24;109243;1254;73106;-80
2023/12/09 07:33:33;;;;;;;42.90;26.00;;;;;;;-1.18;83.97;100440.78;109386;1256;70522;-79
2023/12/09 07:36:01;;;;;;;40.00;22.70;;;;;;;-1.18;84.34;100437.96;109090;1252;71283;-80
2023/12/09 07:38:31;;;;;;;39.10;22.60;;;;;;;-1.04;84.07;100443.91;108981;1252;60290;-82
2023/12/09 07:40:58;;;;;;;38.40;23.00;;;;;;;-0.90;83.71;100446.67;107745;1252;60363;-81
2023/12/09 07:43:25;;;;;;;38.50;22.30;;;;;;;-0.86;83.50;100457.44;108932;1252;72571;-80
2023/12/09 07:45:53;;;;;;;34.90;20.40;;;;;;;-0.91;83.17;100456.13;109377;1252;69093;-82
2023/12/09 07:48:20;;;;;;;31.30;20.00;;;;;;;-0.95;83.29;100459.82;109522;1253;73496;-80
2023/12/09 07:50:48;;;;;;;35.90;21.30;;;;;;;-0.99;83.35;100458.59;108729;1253;58866;-79
2023/12/09 07:53:17;;;;;;;32.00;20.50;;;;;;;-1.03;83.30;100466.65;107776;1252;60364;-81
2023/12/09 07:55:44;;;;;;;33.90;19.60;;;;;;;-1.03;83.70;100465.61;106894;1254;72630;-81
2023/12/09 07:58:12;;;;;;;29.80;18.40;;;;;;;-0.92;83.48;100469.73;106711;1256;70535;-80
2023/12/09 08:00:39;;;;;;;29.70;19.00;;;;;;;-0.78;83.43;100466.08;106491;1256;71737;-81
2023/12/09 08:03:06;;;;;;;33.10;19.70;;;;;;;-0.78;83.73;100463.98;106583;1253;60593;-81
2023/12/09 08:05:34;;;;;;;32.40;20.60;;;;;;;-0.76;83.65;100464.95;106585;1254;60511;-82
2023/12/09 08:08:02;;;;;;;34.20;21.00;;;;;;;-0.75;83.64;100462.98;106568;1254;72048;-80
2023/12/09 08:10:29;;;;;;;38.80;22.00;;;;;;;-0.78;83.38;100458.75;106457;1254;68587;-81
2023/12/09 08:12:56;;;;;;;34.50;19.60;;;;;;;-0.79;83.11;100459.01;106828;1254;72414;-78
2023/12/09 08:15:23;;;;;;;32.70;20.00;;;;;;;-0.73;82.84;100458.71;106549;1256;60418;-79
2023/12/09 08:17:50;;;;;;;34.50;21.00;;;;;;;-0.65;82.78;100459.52;106615;1254;60504;-79
2023/12/09 08:20:17;;;;;;;31.90;19.60;;;;;;;-0.66;83.06;100456.27;106310;1256;73836;-80
2023/12/09 08:22:44;;;;;;;35.90;22.20;;;;;;;-0.66;83.13;100452.77;106219;1258;70404;-77
2023/12/09 08:25:11;;;;;;;32.50;21.10;;;;;;;-0.64;83.17;100451.30;106323;1254;72686;-81
2023/12/09 08:27:38;;;;;;;35.60;21.50;;;;;;;-0.64;82.84;100444.64;106364;1257;60345;-82
2023/12/09 08:30:10;;;;;;;35.20;20.80;;;;;;;-0.63;82.71;100445.44;106343;1252;60345;-81
2023/12/09 08:32:39;;;;;;;32.20;18.50;;;;;;;-0.61;82.66;100442.41;106486;1254;73728;-81
2023/12/09 08:35:08;;;;;;;31.10;20.80;;;;;;;-0.49;82.03;100441.09;107192;1254;70051;-83
2023/12/09 08:37:37;;;;;;;38.30;21.80;;;;;;;-0.42;81.71;100442.10;106998;1254;72702;-84
2023/12/09 08:40:12;;;;;;;37.80;22.90;;;;;;;-0.43;81.87;100440.44;108806;1253;60775;-82
2023/12/09 08:42:43;;;;;;;33.30;21.30;;;;;;;-0.43;81.89;100437.11;109614;1253;61395;-80
2023/12/09 08:45:17;;;;;;;35.00;21.10;;;;;;;-0.43;81.66;100434.85;108622;1256;72604;-81
2023/12/09 08:47:44;;;;;;;;;;;;;;;-0.42;81.61;100431.01;107469;1256;68886;-79
2023/12/09 08:50:13;;;;;;;32.70;20.00;;;;;;;-0.41;81.43;100429.02;106505;1254;72341;-80
2023/12/09 08:52:51;;;;;;;32.50;20.50;;;;;;;-0.39;81.40;100424.89;106221;1252;60817;-79
2023/12/09 08:55:18;;;;;;;26.80;17.60;;;;;;;-0.24;80.94;100421.54;106237;1252;60456;-80
2023/12/09 08:57:45;;;;;;;26.90;19.10;;;;;;;-0.13;80.24;100418.14;106419;1254;73892;-79
2023/12/09 09:00:15;;;;;;;31.30;18.80;;;;;;;-0.11;80.18;100418.88;106675;1254;69204;-80
2023/12/09 09:02:43;;;;;;;27.30;19.00;;;;;;;-0.09;80.53;100415.11;106287;1256;71650;-79
2023/12/09 09:05:10;;;;;;;29.80;20.20;;;;;;;-0.04;80.39;100413.99;106365;1254;60460;-78
2023/12/09 09:07:40;;;;;;;29.60;20.30;;;;;;;0.01;80.44;100413.04;106501;1256;60354;-81
2023/12/09 09:10:07;;;;;;;30.20;20.40;;;;;;;0.03;79.96;100411.38;106438;1252;73703;-79
2023/12/09 09:12:35;;;;;;;29.00;20.00;;;;;;;-0.01;79.54;100407.20;106386;1253;70153;-81
2023/12/09 09:15:02;;;;;;;34.20;20.30;;;;;;;-0.07;79.31;100408.77;106482;1254;71536;-78
2023/12/09 09:17:35;;;;;;;28.50;18.80;;;;;;;-0.02;79.49;100406.59;107388;1254;61107;-79
2023/12/09 09:20:03;;;;;;;26.60;18.00;;;;;;;0.07;79.13;100399.06;107537;1252;60351;-77
2023/12/09 09:22:30;;;;;;;27.90;18.00;;;;;;;0.02;78.79;100399.92;107165;1256;72821;-77
2023/12/09 09:24:58;;;;;;;28.30;18.80;;;;;;;-0.07;78.81;100403.88;107436;1254;69509;-82
2023/12/09 09:27:26;;;;;;;22.30;16.20;;;;;;;-0.14;79.04;100395.36;108803;1253;71358;-82
2023/12/09 09:29:54;;;;;;;29.00;18.90;;;;;;;-0.22;78.83;100396.47;109094;1254;58514;-85
2023/12/09 09:32:21;;;;;;;26.50;17.90;;;;;;;-0.29;78.79;100392.52;108592;1254;60033;-81
2023/12/09 09:34:52;;;;;;;27.50;17.30;;;;;;;-0.33;78.96;100390.46;109477;1253;72321;-84
2023/12/09 09:37:19;;;;;;;26.10;17.20;;;;;;;-0.26;78.79;100390.60;109652;1254;68929;-80
2023/12/09 09:39:48;;;;;;;23.40;16.40;;;;;;;-0.17;78.54;100391.20;109707;1254;71388;-84
2023/12/09 09:42:21;;;;;;;26.90;18.10;;;;;;;-0.18;78.69;100392.82;109457;1252;58450;-81
2023/12/09 09:44:53;;;;;;;22.90;16.40;;;;;;;-0.22;78.66;100392.30;108370;1254;61359;-82
2023/12/09 09:47:21;;;;;;;23.80;17.10;;;;;;;-0.29;78.54;100386.08;107721;1254;72325;-79
2023/12/09 09:49:48;;;;;;;25.80;17.90;;;;;;;-0.40;78.21;100379.01;107991;1254;68737;-79
2023/12/09 09:52:15;;;;;;;25.60;17.90;;;;;;;-0.50;78.23;100378.52;106740;1256;72606;-80
2023/12/09 09:54:41;;;;;;;26.60;17.30;;;;;;;-0.48;78.19;100378.39;106642;1254;60338;-82
2023/12/09 09:57:09;;;;;;;21.70;15.80;;;;;;;-0.47;78.13;100377.11;107490;1254;60234;-83
2023/12/09 09:59:36;;;;;;;25.70;17.70;;;;;;;-0.51;78.39;100377.17;107529;1256;73972;-82
2023/12/09 10:02:03;;;;;;;22.60;13.90;;;;;;;-0.54;78.57;100374.20;106799;1256;68687;-83
2023/12/09 10:04:31;;;;;;;18.60;13.50;;;;;;;-0.57;78.23;100381.15;106569;1254;71893;-81
2023/12/09 10:06:58;;;;;;;21.60;13.70;;;;;;;-0.63;78.19;100379.52;106240;1254;60483;-81
2023/12/09 10:09:26;;;;;;;21.80;15.00;;;;;;;-0.65;78.33;100377.02;106085;1254;60341;-81
2023/12/09 10:11:53;;;;;;;22.60;13.00;;;;;;;-0.66;78.20;100376.19;106211;1256;72771;-80
2023/12/09 10:14:20;;;;;;;21.70;13.70;;;;;;;-0.62;78.04;100370.60;106093;1256;70162;-81
2023/12/09 10:16:47;;;;;;;19.00;13.10;;;;;;;-0.43;78.17;100370.66;105985;1259;72861;-79
2023/12/09 10:19:14;;;;;;;20.60;12.30;;;;;;;-0.31;78.15;100367.21;106079;1257;60338;-82
2023/12/09 10:21:44;;;;;;;19.00;12.70;;;;;;;-0.27;77.87;100362.64;106242;1254;62740;-80
2023/12/09 10:24:10;;;;;;;20.20;12.10;;;;;;;-0.26;77.65;100355.30;106599;1254;73766;-80
2023/12/09 10:26:39;;;;;;;19.40;14.30;;;;;;;-0.27;77.41;100352.05;106620;1254;70427;-78
2023/12/09 10:29:07;;;;;;;21.30;14.40;;;;;;;-0.30;77.20;100352.53;108737;1254;71432;-80
2023/12/09 10:31:37;;;;;;;16.20;11.10;;;;;;;-0.31;77.11;100348.45;108418;1254;60406;-80
2023/12/09 10:34:10;;;;;;;18.70;10.50;;;;;;;-0.31;76.39;100345.09;107356;1254;60425;-81
2023/12/09 10:36:37;;;;;;;17.50;11.20;;;;;;;-0.24;75.90;100337.61;106122;1256;718802;-80
2023/12/09 10:40:33;;;;;;;17.90;12.90;;;;;;;-0.20;76.23;100337.90;102685;1291;616253;-81
2023/12/09 10:43:03;;;;;;;19.90;14.00;;;;;;;-0.22;76.36;100337.13;105222;1270;59191;-81
2023/12/09 10:45:30;;;;;;;21.70;13.90;;;;;;;-0.25;76.19;100336.06;105050;1266;60232;-79
2023/12/09 10:47:57;;;;;;;16.90;13.30;;;;;;;-0.27;76.28;100331.11;105432;1259;70112;-79
2023/12/09 10:50:24;;;;;;;18.50;14.40;;;;;;;-0.27;76.31;100326.41;105587;1259;69196;-80
2023/12/09 10:52:52;;;;;;;17.50;13.80;;;;;;;-0.30;76.20;100325.77;105664;1261;155960;-82
2023/12/09 10:55:19;;;;;;;21.30;13.10;;;;;;;-0.29;76.30;100326.56;108591;1256;60324;-81
2023/12/09 10:57:47;;;;;;;15.50;12.10;;;;;;;-0.17;76.10;100324.14;106271;1256;59304;-81
2023/12/09 11:00:15;;;;;;;16.90;12.40;;;;;;;-0.03;75.98;100320.25;105858;1260;72247;-80
2023/12/09 11:02:44;;;;;;;16.50;11.80;;;;;;;-0.03;75.97;100322.52;105695;1256;70334;-82
2023/12/09 11:05:13;;;;;;;16.80;12.60;;;;;;;-0.04;75.99;100321.33;106265;1256;71472;-83